ADDS METAR Data INFO
IDs: Format: Raw Decoded Include TAF

Data at: 0259 UTC 21 Jun 2018

NZWN 210230Z AUTO 15013KT 120V190 9999 FEW023/// BKN028/// OVC046/// 09/04 Q1021 NOSIG
NZWN 210200Z AUTO 16015KT 9999 -RA BKN027/// 09/06 Q1022 NOSIG
NZWN 210130Z AUTO 15012KT 9999 -RA SCT024/// BKN031/// BKN047/// 09/05 Q1022 NOSIG
NZWN 210100Z AUTO 15016KT 9999 FEW012/// SCT029/// OVC045/// 09/06 Q1022 NOSIG
NZWN 210030Z AUTO 16015KT 9999 FEW019/// BKN027/// BKN032/// 09/06 Q1022 NOSIG
NZWN 210000Z AUTO 17016KT 8000 BKN026/// BKN037/// BKN044/// 08/06 Q1022 NOSIG

TAF NZWN 202310Z 2100/2200 16015KT 9999 -SHRA FEW030 BKN040
  BECMG 2116/2118 03008KT
  TEMPO 2116/2120 BKN010